sensor_id;sensor_type;location;lat;lon;timestamp;P1;durP1;ratioP1;P2;durP2;ratioP2
781;SDS011;374;52.568;13.402;2023-04-15T00:01:20;29.83;;;19.93;;
781;SDS011;374;52.568;13.402;2023-04-15T00:03:46;25.53;;;19.00;;
781;SDS011;374;52.568;13.402;2023-04-15T00:06:12;27.57;;;21.30;;
781;SDS011;374;52.568;13.402;2023-04-15T00:08:38;27.07;;;20.53;;
781;SDS011;374;52.568;13.402;2023-04-15T00:11:04;27.17;;;20.07;;
781;SDS011;374;52.568;13.402;2023-04-15T00:13:30;29.10;;;20.80;;
781;SDS011;374;52.568;13.402;2023-04-15T00:15:59;30.83;;;22.63;;
781;SDS011;374;52.568;13.402;2023-04-15T00:18:25;26.23;;;19.60;;
781;SDS011;374;52.568;13.402;2023-04-15T00:20:51;26.30;;;20.30;;
781;SDS011;374;52.568;13.402;2023-04-15T00:23:16;24.57;;;19.30;;
781;SDS011;374;52.568;13.402;2023-04-15T00:25:43;26.90;;;20.53;;
781;SDS011;374;52.568;13.402;2023-04-15T00:28:09;31.03;;;21.43;;
781;SDS011;374;52.568;13.402;2023-04-15T00:30:34;30.23;;;22.10;;
781;SDS011;374;52.568;13.402;2023-04-15T00:33:00;27.70;;;20.70;;
781;SDS011;374;52.568;13.402;2023-04-15T00:35:28;30.23;;;22.67;;
781;SDS011;374;52.568;13.402;2023-04-15T00:37:56;29.00;;;23.13;;
781;SDS011;374;52.568;13.402;2023-04-15T00:40:22;27.77;;;21.00;;
781;SDS011;374;52.568;13.402;2023-04-15T00:42:48;30.37;;;22.70;;
781;SDS011;374;52.568;13.402;2023-04-15T00:45:14;31.77;;;22.80;;
781;SDS011;374;52.568;13.402;2023-04-15T00:47:40;31.80;;;23.17;;
781;SDS011;374;52.568;13.402;2023-04-15T00:50:07;31.80;;;23.40;;
781;SDS011;374;52.568;13.402;2023-04-15T00:52:33;31.60;;;24.20;;
781;SDS011;374;52.568;13.402;2023-04-15T00:54:58;35.60;;;23.93;;
781;SDS011;374;52.568;13.402;2023-04-15T00:57:24;34.37;;;23.93;;
781;SDS011;374;52.568;13.402;2023-04-15T00:59:51;31.57;;;23.60;;
781;SDS011;374;52.568;13.402;2023-04-15T01:02:17;30.40;;;22.40;;
781;SDS011;374;52.568;13.402;2023-04-15T01:04:43;31.67;;;23.90;;
781;SDS011;374;52.568;13.402;2023-04-15T01:07:09;34.63;;;24.47;;
781;SDS011;374;52.568;13.402;2023-04-15T01:09:34;36.33;;;24.00;;
781;SDS011;374;52.568;13.402;2023-04-15T01:12:00;32.70;;;23.47;;
781;SDS011;374;52.568;13.402;2023-04-15T01:14:26;40.17;;;26.50;;
781;SDS011;374;52.568;13.402;2023-04-15T01:16:52;36.70;;;26.40;;
781;SDS011;374;52.568;13.402;2023-04-15T01:19:18;35.07;;;24.83;;
781;SDS011;374;52.568;13.402;2023-04-15T01:21:44;39.83;;;24.90;;
781;SDS011;374;52.568;13.402;2023-04-15T01:24:10;35.50;;;25.87;;
781;SDS011;374;52.568;13.402;2023-04-15T01:26:39;38.87;;;23.50;;
781;SDS011;374;52.568;13.402;2023-04-15T01:29:04;40.57;;;27.60;;
781;SDS011;374;52.568;13.402;2023-04-15T01:31:30;32.93;;;23.67;;
781;SDS011;374;52.568;13.402;2023-04-15T01:33:56;36.37;;;24.83;;
781;SDS011;374;52.568;13.402;2023-04-15T01:36:22;34.23;;;25.90;;
781;SDS011;374;52.568;13.402;2023-04-15T01:38:48;37.40;;;26.00;;
781;SDS011;374;52.568;13.402;2023-04-15T01:41:14;36.23;;;23.93;;
781;SDS011;374;52.568;13.402;2023-04-15T01:43:40;35.70;;;25.37;;
781;SDS011;374;52.568;13.402;2023-04-15T01:46:05;37.20;;;25.30;;
781;SDS011;374;52.568;13.402;2023-04-15T01:48:32;38.43;;;26.17;;
781;SDS011;374;52.568;13.402;2023-04-15T01:50:57;43.50;;;26.40;;
781;SDS011;374;52.568;13.402;2023-04-15T01:53:23;36.60;;;25.20;;
781;SDS011;374;52.568;13.402;2023-04-15T01:55:49;41.40;;;26.90;;
781;SDS011;374;52.568;13.402;2023-04-15T01:58:16;41.27;;;26.07;;
781;SDS011;374;52.568;13.402;2023-04-15T02:00:42;36.33;;;24.03;;
781;SDS011;374;52.568;13.402;2023-04-15T02:03:07;37.03;;;25.93;;
781;SDS011;374;52.568;13.402;2023-04-15T02:05:33;40.40;;;26.47;;
781;SDS011;374;52.568;13.402;2023-04-15T02:07:59;37.00;;;25.37;;
781;SDS011;374;52.568;13.402;2023-04-15T02:10:25;38.70;;;26.93;;
781;SDS011;374;52.568;13.402;2023-04-15T02:12:51;39.90;;;27.30;;
781;SDS011;374;52.568;13.402;2023-04-15T02:15:16;35.63;;;24.20;;
781;SDS011;374;52.568;13.402;2023-04-15T02:17:42;36.07;;;25.63;;
781;SDS011;374;52.568;13.402;2023-04-15T02:20:10;42.57;;;26.27;;
781;SDS011;374;52.568;13.402;2023-04-15T02:22:36;36.73;;;24.97;;
781;SDS011;374;52.568;13.402;2023-04-15T02:25:01;38.00;;;25.53;;
781;SDS011;374;52.568;13.402;2023-04-15T02:27:27;37.70;;;25.60;;
781;SDS011;374;52.568;13.402;2023-04-15T02:29:53;37.63;;;25.77;;
781;SDS011;374;52.568;13.402;2023-04-15T02:32:18;40.33;;;25.07;;
781;SDS011;374;52.568;13.402;2023-04-15T02:34:45;38.90;;;26.17;;
781;SDS011;374;52.568;13.402;2023-04-15T02:37:11;37.17;;;25.83;;
781;SDS011;374;52.568;13.402;2023-04-15T02:39:38;39.40;;;28.73;;
781;SDS011;374;52.568;13.402;2023-04-15T02:42:03;36.57;;;25.33;;
781;SDS011;374;52.568;13.402;2023-04-15T02:44:30;37.20;;;25.23;;
781;SDS011;374;52.568;13.402;2023-04-15T02:46:56;34.70;;;25.67;;
781;SDS011;374;52.568;13.402;2023-04-15T02:49:23;37.50;;;26.53;;
781;SDS011;374;52.568;13.402;2023-04-15T02:51:49;38.30;;;25.90;;
781;SDS011;374;52.568;13.402;2023-04-15T02:54:18;39.03;;;26.43;;
781;SDS011;374;52.568;13.402;2023-04-15T02:56:45;38.27;;;25.30;;
781;SDS011;374;52.568;13.402;2023-04-15T02:59:11;37.50;;;25.40;;
781;SDS011;374;52.568;13.402;2023-04-15T03:01:36;40.10;;;26.27;;
781;SDS011;374;52.568;13.402;2023-04-15T03:04:02;34.97;;;25.10;;
781;SDS011;374;52.568;13.402;2023-04-15T03:06:28;41.57;;;26.60;;
781;SDS011;374;52.568;13.402;2023-04-15T03:08:53;41.60;;;25.33;;
781;SDS011;374;52.568;13.402;2023-04-15T03:11:23;37.27;;;25.77;;
781;SDS011;374;52.568;13.402;2023-04-15T03:13:50;40.47;;;23.67;;
781;SDS011;374;52.568;13.402;2023-04-15T03:16:16;41.03;;;25.47;;
781;SDS011;374;52.568;13.402;2023-04-15T03:18:41;37.00;;;26.50;;
781;SDS011;374;52.568;13.402;2023-04-15T03:21:07;33.10;;;25.30;;
781;SDS011;374;52.568;13.402;2023-04-15T03:23:32;34.53;;;26.20;;
781;SDS011;374;52.568;13.402;2023-04-15T03:26:00;32.53;;;24.97;;
781;SDS011;374;52.568;13.402;2023-04-15T03:28:26;38.83;;;25.33;;
781;SDS011;374;52.568;13.402;2023-04-15T03:30:53;33.13;;;22.60;;
781;SDS011;374;52.568;13.402;2023-04-15T03:33:19;36.90;;;24.30;;
781;SDS011;374;52.568;13.402;2023-04-15T03:35:44;35.13;;;24.20;;
781;SDS011;374;52.568;13.402;2023-04-15T03:38:10;40.10;;;24.80;;
781;SDS011;374;52.568;13.402;2023-04-15T03:40:36;36.33;;;24.50;;
781;SDS011;374;52.568;13.402;2023-04-15T03:43:02;34.83;;;23.97;;
781;SDS011;374;52.568;13.402;2023-04-15T03:45:27;36.60;;;24.70;;
781;SDS011;374;52.568;13.402;2023-04-15T03:47:53;35.60;;;25.70;;
781;SDS011;374;52.568;13.402;2023-04-15T03:50:18;35.57;;;25.00;;
781;SDS011;374;52.568;13.402;2023-04-15T03:52:44;33.80;;;23.43;;
781;SDS011;374;52.568;13.402;2023-04-15T03:55:10;35.57;;;23.67;;
781;SDS011;374;52.568;13.402;2023-04-15T03:57:35;32.77;;;23.90;;
781;SDS011;374;52.568;13.402;2023-04-15T04:00:06;30.50;;;21.40;;
781;SDS011;374;52.568;13.402;2023-04-15T04:02:35;32.63;;;24.27;;
781;SDS011;374;52.568;13.402;2023-04-15T04:05:00;34.20;;;24.23;;
781;SDS011;374;52.568;13.402;2023-04-15T04:07:26;38.33;;;25.40;;
781;SDS011;374;52.568;13.402;2023-04-15T04:09:55;30.93;;;21.80;;
781;SDS011;374;52.568;13.402;2023-04-15T04:12:21;30.53;;;23.17;;
781;SDS011;374;52.568;13.402;2023-04-15T04:14:47;31.80;;;22.90;;
781;SDS011;374;52.568;13.402;2023-04-15T04:17:12;29.20;;;21.67;;
781;SDS011;374;52.568;13.402;2023-04-15T04:19:38;27.13;;;21.30;;
781;SDS011;374;52.568;13.402;2023-04-15T04:22:03;34.87;;;23.90;;
781;SDS011;374;52.568;13.402;2023-04-15T04:24:29;31.40;;;21.70;;
781;SDS011;374;52.568;13.402;2023-04-15T04:26:55;33.70;;;23.50;;
781;SDS011;374;52.568;13.402;2023-04-15T04:29:21;30.00;;;22.70;;
781;SDS011;374;52.568;13.402;2023-04-15T04:31:46;33.07;;;24.30;;
781;SDS011;374;52.568;13.402;2023-04-15T04:34:12;30.67;;;20.93;;
781;SDS011;374;52.568;13.402;2023-04-15T04:36:40;29.63;;;21.63;;
781;SDS011;374;52.568;13.402;2023-04-15T04:39:06;35.23;;;21.63;;
781;SDS011;374;52.568;13.402;2023-04-15T04:41:32;26.23;;;20.93;;
781;SDS011;374;52.568;13.402;2023-04-15T04:43:57;28.60;;;21.30;;
781;SDS011;374;52.568;13.402;2023-04-15T04:46:26;31.67;;;23.50;;
781;SDS011;374;52.568;13.402;2023-04-15T04:48:52;28.50;;;20.80;;
781;SDS011;374;52.568;13.402;2023-04-15T04:51:17;27.77;;;21.40;;
781;SDS011;374;52.568;13.402;2023-04-15T04:53:43;26.10;;;19.77;;
781;SDS011;374;52.568;13.402;2023-04-15T04:56:08;28.23;;;20.13;;
781;SDS011;374;52.568;13.402;2023-04-15T04:58:34;29.33;;;21.17;;
781;SDS011;374;52.568;13.402;2023-04-15T05:01:00;29.17;;;21.07;;
781;SDS011;374;52.568;13.402;2023-04-15T05:03:26;29.80;;;20.40;;
781;SDS011;374;52.568;13.402;2023-04-15T05:05:52;28.37;;;20.77;;
781;SDS011;374;52.568;13.402;2023-04-15T05:08:18;24.90;;;20.20;;
781;SDS011;374;52.568;13.402;2023-04-15T05:10:44;31.00;;;21.17;;
781;SDS011;374;52.568;13.402;2023-04-15T05:13:10;35.23;;;25.17;;
781;SDS011;374;52.568;13.402;2023-04-15T05:15:39;26.23;;;20.50;;
781;SDS011;374;52.568;13.402;2023-04-15T05:18:07;25.63;;;20.90;;
781;SDS011;374;52.568;13.402;2023-04-15T05:20:32;26.97;;;20.10;;
781;SDS011;374;52.568;13.402;2023-04-15T05:22:58;26.80;;;19.43;;
781;SDS011;374;52.568;13.402;2023-04-15T05:25:23;28.30;;;20.70;;
781;SDS011;374;52.568;13.402;2023-04-15T05:27:50;25.17;;;19.90;;
781;SDS011;374;52.568;13.402;2023-04-15T05:30:15;25.13;;;19.73;;
781;SDS011;374;52.568;13.402;2023-04-15T05:32:41;22.60;;;19.20;;
781;SDS011;374;52.568;13.402;2023-04-15T05:35:07;24.13;;;20.33;;
781;SDS011;374;52.568;13.402;2023-04-15T05:37:32;23.83;;;19.27;;
781;SDS011;374;52.568;13.402;2023-04-15T05:39:58;26.30;;;20.03;;
781;SDS011;374;52.568;13.402;2023-04-15T05:42:23;23.53;;;18.30;;
781;SDS011;374;52.568;13.402;2023-04-15T05:44:49;25.03;;;20.53;;
781;SDS011;374;52.568;13.402;2023-04-15T05:47:15;24.63;;;18.30;;
781;SDS011;374;52.568;13.402;2023-04-15T05:49:40;25.03;;;19.17;;
781;SDS011;374;52.568;13.402;2023-04-15T05:52:06;26.43;;;19.03;;
781;SDS011;374;52.568;13.402;2023-04-15T05:54:32;25.80;;;19.17;;
781;SDS011;374;52.568;13.402;2023-04-15T05:57:00;21.07;;;18.03;;
781;SDS011;374;52.568;13.402;2023-04-15T05:59:26;23.20;;;18.77;;
781;SDS011;374;52.568;13.402;2023-04-15T06:01:52;22.97;;;18.10;;
781;SDS011;374;52.568;13.402;2023-04-15T06:04:18;24.10;;;18.27;;
781;SDS011;374;52.568;13.402;2023-04-15T06:06:43;21.53;;;18.90;;
781;SDS011;374;52.568;13.402;2023-04-15T06:09:09;21.07;;;17.47;;
781;SDS011;374;52.568;13.402;2023-04-15T06:11:35;24.07;;;18.83;;
781;SDS011;374;52.568;13.402;2023-04-15T06:14:00;23.70;;;19.20;;
781;SDS011;374;52.568;13.402;2023-04-15T06:16:26;25.47;;;18.63;;
781;SDS011;374;52.568;13.402;2023-04-15T06:18:51;23.10;;;18.33;;
781;SDS011;374;52.568;13.402;2023-04-15T06:21:17;21.70;;;18.73;;
781;SDS011;374;52.568;13.402;2023-04-15T06:23:43;23.27;;;17.87;;
781;SDS011;374;52.568;13.402;2023-04-15T06:26:09;18.17;;;15.93;;
781;SDS011;374;52.568;13.402;2023-04-15T06:28:34;21.43;;;18.03;;
781;SDS011;374;52.568;13.402;2023-04-15T06:31:06;23.33;;;17.77;;
781;SDS011;374;52.568;13.402;2023-04-15T06:33:32;18.97;;;17.00;;
781;SDS011;374;52.568;13.402;2023-04-15T06:35:57;20.07;;;16.30;;
781;SDS011;374;52.568;13.402;2023-04-15T06:38:23;18.40;;;15.87;;
781;SDS011;374;52.568;13.402;2023-04-15T06:40:48;18.27;;;14.90;;
781;SDS011;374;52.568;13.402;2023-04-15T06:43:14;18.40;;;16.27;;
781;SDS011;374;52.568;13.402;2023-04-15T06:45:39;19.13;;;16.97;;
781;SDS011;374;52.568;13.402;2023-04-15T06:48:05;18.67;;;16.63;;
781;SDS011;374;52.568;13.402;2023-04-15T06:50:31;19.40;;;16.70;;
781;SDS011;374;52.568;13.402;2023-04-15T06:52:59;17.30;;;15.47;;
781;SDS011;374;52.568;13.402;2023-04-15T06:55:27;16.47;;;14.77;;
781;SDS011;374;52.568;13.402;2023-04-15T06:57:55;17.90;;;15.73;;
781;SDS011;374;52.568;13.402;2023-04-15T07:00:21;17.40;;;15.60;;
781;SDS011;374;52.568;13.402;2023-04-15T07:02:46;16.53;;;12.93;;
781;SDS011;374;52.568;13.402;2023-04-15T07:05:14;16.50;;;13.93;;
781;SDS011;374;52.568;13.402;2023-04-15T07:07:44;17.13;;;15.27;;
781;SDS011;374;52.568;13.402;2023-04-15T07:10:10;22.30;;;13.90;;
781;SDS011;374;52.568;13.402;2023-04-15T07:12:36;16.53;;;14.83;;
781;SDS011;374;52.568;13.402;2023-04-15T07:15:02;16.17;;;14.57;;
781;SDS011;374;52.568;13.402;2023-04-15T07:17:28;16.33;;;14.63;;
781;SDS011;374;52.568;13.402;2023-04-15T07:19:53;15.53;;;14.03;;
781;SDS011;374;52.568;13.402;2023-04-15T07:22:19;15.83;;;14.13;;
781;SDS011;374;52.568;13.402;2023-04-15T07:24:45;16.37;;;13.90;;
781;SDS011;374;52.568;13.402;2023-04-15T07:27:10;15.47;;;13.97;;
781;SDS011;374;52.568;13.402;2023-04-15T07:29:40;14.50;;;13.10;;
781;SDS011;374;52.568;13.402;2023-04-15T07:32:11;17.70;;;15.30;;
781;SDS011;374;52.568;13.402;2023-04-15T07:34:36;17.00;;;15.27;;
781;SDS011;374;52.568;13.402;2023-04-15T07:37:02;17.90;;;16.10;;
781;SDS011;374;52.568;13.402;2023-04-15T07:39:27;17.17;;;14.53;;
781;SDS011;374;52.568;13.402;2023-04-15T07:41:58;16.83;;;14.77;;
781;SDS011;374;52.568;13.402;2023-04-15T07:44:26;16.63;;;15.17;;
781;SDS011;374;52.568;13.402;2023-04-15T07:46:59;19.47;;;15.70;;
781;SDS011;374;52.568;13.402;2023-04-15T07:49:31;16.63;;;15.03;;
781;SDS011;374;52.568;13.402;2023-04-15T07:51:56;16.80;;;15.00;;
781;SDS011;374;52.568;13.402;2023-04-15T07:54:23;17.00;;;15.30;;
781;SDS011;374;52.568;13.402;2023-04-15T07:56:55;17.53;;;15.70;;
781;SDS011;374;52.568;13.402;2023-04-15T07:59:21;18.07;;;16.00;;
781;SDS011;374;52.568;13.402;2023-04-15T08:01:46;19.10;;;16.00;;
781;SDS011;374;52.568;13.402;2023-04-15T08:04:12;18.50;;;16.50;;
781;SDS011;374;52.568;13.402;2023-04-15T08:06:45;18.50;;;15.20;;
781;SDS011;374;52.568;13.402;2023-04-15T08:09:13;17.27;;;15.40;;
781;SDS011;374;52.568;13.402;2023-04-15T08:11:39;19.37;;;15.00;;
781;SDS011;374;52.568;13.402;2023-04-15T08:14:05;19.13;;;15.80;;
781;SDS011;374;52.568;13.402;2023-04-15T08:16:30;16.63;;;14.93;;
781;SDS011;374;52.568;13.402;2023-04-15T08:18:56;18.80;;;16.80;;
781;SDS011;374;52.568;13.402;2023-04-15T08:21:40;17.97;;;16.07;;
781;SDS011;374;52.568;13.402;2023-04-15T08:25:05;18.10;;;16.30;;
781;SDS011;374;52.568;13.402;2023-04-15T08:34:22;19.50;;;17.50;;
781;SDS011;374;52.568;13.402;2023-04-15T08:39:46;17.20;;;15.30;;
781;SDS011;374;52.568;13.402;2023-04-15T08:45:13;19.37;;;16.70;;
781;SDS011;374;52.568;13.402;2023-04-15T08:47:38;28.57;;;25.17;;
781;SDS011;374;52.568;13.402;2023-04-15T08:50:05;19.30;;;17.30;;
781;SDS011;374;52.568;13.402;2023-04-15T08:52:33;18.23;;;16.53;;
781;SDS011;374;52.568;13.402;2023-04-15T08:54:59;19.37;;;17.37;;
781;SDS011;374;52.568;13.402;2023-04-15T08:57:29;18.50;;;16.17;;
781;SDS011;374;52.568;13.402;2023-04-15T09:00:03;16.70;;;14.70;;
781;SDS011;374;52.568;13.402;2023-04-15T09:02:30;19.07;;;17.07;;
781;SDS011;374;52.568;13.402;2023-04-15T09:04:56;18.90;;;16.87;;
781;SDS011;374;52.568;13.402;2023-04-15T09:07:23;19.77;;;16.57;;
781;SDS011;374;52.568;13.402;2023-04-15T09:10:10;22.57;;;16.87;;
781;SDS011;374;52.568;13.402;2023-04-15T09:12:36;18.23;;;16.43;;
781;SDS011;374;52.568;13.402;2023-04-15T09:15:07;19.43;;;17.47;;
781;SDS011;374;52.568;13.402;2023-04-15T09:17:36;20.40;;;17.83;;
781;SDS011;374;52.568;13.402;2023-04-15T09:20:10;18.40;;;16.60;;
781;SDS011;374;52.568;13.402;2023-04-15T09:22:38;21.57;;;17.50;;
781;SDS011;374;52.568;13.402;2023-04-15T09:27:48;18.80;;;16.23;;
781;SDS011;374;52.568;13.402;2023-04-15T09:30:18;18.17;;;16.37;;
781;SDS011;374;52.568;13.402;2023-04-15T09:32:51;20.50;;;18.47;;
781;SDS011;374;52.568;13.402;2023-04-15T09:35:18;19.33;;;16.83;;
781;SDS011;374;52.568;13.402;2023-04-15T09:37:48;16.67;;;15.07;;
781;SDS011;374;52.568;13.402;2023-04-15T09:40:35;18.60;;;16.63;;
781;SDS011;374;52.568;13.402;2023-04-15T09:43:02;16.80;;;15.00;;
781;SDS011;374;52.568;13.402;2023-04-15T09:45:29;16.90;;;15.27;;
781;SDS011;374;52.568;13.402;2023-04-15T09:47:59;17.93;;;16.03;;
781;SDS011;374;52.568;13.402;2023-04-15T09:50:43;18.23;;;16.30;;
781;SDS011;374;52.568;13.402;2023-04-15T09:53:14;18.07;;;16.27;;
781;SDS011;374;52.568;13.402;2023-04-15T09:58:33;17.43;;;15.53;;
781;SDS011;374;52.568;13.402;2023-04-15T10:01:01;18.80;;;16.80;;
781;SDS011;374;52.568;13.402;2023-04-15T10:03:29;18.67;;;16.30;;
781;SDS011;374;52.568;13.402;2023-04-15T10:05:59;17.97;;;16.07;;
781;SDS011;374;52.568;13.402;2023-04-15T10:08:30;19.50;;;16.40;;
781;SDS011;374;52.568;13.402;2023-04-15T10:10:57;17.80;;;16.00;;
781;SDS011;374;52.568;13.402;2023-04-15T10:13:25;18.73;;;16.73;;
781;SDS011;374;52.568;13.402;2023-04-15T10:15:57;20.97;;;16.90;;
781;SDS011;374;52.568;13.402;2023-04-15T10:18:25;18.97;;;16.97;;
781;SDS011;374;52.568;13.402;2023-04-15T10:20:52;17.63;;;15.80;;
781;SDS011;374;52.568;13.402;2023-04-15T10:23:18;18.20;;;16.30;;
781;SDS011;374;52.568;13.402;2023-04-15T10:25:50;18.30;;;16.40;;
781;SDS011;374;52.568;13.402;2023-04-15T10:28:18;18.27;;;16.27;;
781;SDS011;374;52.568;13.402;2023-04-15T10:30:47;18.60;;;16.70;;
781;SDS011;374;52.568;13.402;2023-04-15T10:33:13;18.63;;;15.77;;
781;SDS011;374;52.568;13.402;2023-04-15T10:35:42;20.43;;;18.17;;
781;SDS011;374;52.568;13.402;2023-04-15T10:41:13;19.10;;;17.00;;
781;SDS011;374;52.568;13.402;2023-04-15T10:43:39;18.77;;;15.93;;
781;SDS011;374;52.568;13.402;2023-04-15T10:46:10;19.40;;;16.50;;
781;SDS011;374;52.568;13.402;2023-04-15T10:48:45;18.63;;;16.63;;
781;SDS011;374;52.568;13.402;2023-04-15T10:51:15;18.27;;;15.87;;
781;SDS011;374;52.568;13.402;2023-04-15T10:53:41;18.63;;;16.83;;
781;SDS011;374;52.568;13.402;2023-04-15T10:56:07;21.23;;;18.93;;
781;SDS011;374;52.568;13.402;2023-04-15T10:58:40;21.97;;;18.90;;
781;SDS011;374;52.568;13.402;2023-04-15T11:01:06;18.83;;;16.97;;
781;SDS011;374;52.568;13.402;2023-04-15T11:03:36;19.17;;;17.17;;
781;SDS011;374;52.568;13.402;2023-04-15T11:06:03;18.63;;;16.67;;
781;SDS011;374;52.568;13.402;2023-04-15T11:08:52;19.20;;;15.97;;
781;SDS011;374;52.568;13.402;2023-04-15T11:11:50;19.77;;;16.63;;
781;SDS011;374;52.568;13.402;2023-04-15T11:14:28;20.70;;;16.57;;
781;SDS011;374;52.568;13.402;2023-04-15T11:16:54;20.03;;;16.67;;
781;SDS011;374;52.568;13.402;2023-04-15T11:19:19;18.80;;;15.60;;
781;SDS011;374;52.568;13.402;2023-04-15T11:21:45;18.13;;;16.37;;
781;SDS011;374;52.568;13.402;2023-04-15T11:24:10;17.43;;;15.63;;
781;SDS011;374;52.568;13.402;2023-04-15T11:26:36;17.20;;;15.50;;
781;SDS011;374;52.568;13.402;2023-04-15T11:29:02;17.70;;;15.90;;
781;SDS011;374;52.568;13.402;2023-04-15T11:31:27;18.87;;;16.03;;
781;SDS011;374;52.568;13.402;2023-04-15T11:33:57;16.77;;;15.07;;
781;SDS011;374;52.568;13.402;2023-04-15T11:36:27;17.47;;;15.57;;
781;SDS011;374;52.568;13.402;2023-04-15T11:38:54;16.73;;;15.17;;
781;SDS011;374;52.568;13.402;2023-04-15T11:41:21;17.70;;;16.00;;
781;SDS011;374;52.568;13.402;2023-04-15T11:43:47;16.27;;;14.57;;
781;SDS011;374;52.568;13.402;2023-04-15T11:46:14;16.20;;;14.50;;
781;SDS011;374;52.568;13.402;2023-04-15T11:48:41;17.13;;;15.43;;
781;SDS011;374;52.568;13.402;2023-04-15T11:51:08;17.33;;;15.13;;
781;SDS011;374;52.568;13.402;2023-04-15T11:53:36;17.17;;;14.93;;
781;SDS011;374;52.568;13.402;2023-04-15T11:56:07;16.43;;;14.73;;
781;SDS011;374;52.568;13.402;2023-04-15T11:58:40;19.80;;;16.77;;
781;SDS011;374;52.568;13.402;2023-04-15T12:01:07;16.50;;;14.80;;
781;SDS011;374;52.568;13.402;2023-04-15T12:03:43;16.73;;;15.03;;
781;SDS011;374;52.568;13.402;2023-04-15T12:06:14;15.73;;;14.03;;
781;SDS011;374;52.568;13.402;2023-04-15T12:13:58;14.67;;;13.23;;
781;SDS011;374;52.568;13.402;2023-04-15T12:16:35;16.97;;;14.67;;
781;SDS011;374;52.568;13.402;2023-04-15T12:19:06;16.17;;;14.57;;
781;SDS011;374;52.568;13.402;2023-04-15T12:21:34;15.67;;;14.13;;
781;SDS011;374;52.568;13.402;2023-04-15T12:24:02;17.37;;;15.57;;
781;SDS011;374;52.568;13.402;2023-04-15T12:26:32;16.43;;;14.83;;
781;SDS011;374;52.568;13.402;2023-04-15T12:31:27;15.33;;;13.73;;
781;SDS011;374;52.568;13.402;2023-04-15T12:33:58;17.10;;;15.20;;
781;SDS011;374;52.568;13.402;2023-04-15T12:36:28;16.20;;;14.50;;
781;SDS011;374;52.568;13.402;2023-04-15T12:39:34;17.40;;;14.97;;
781;SDS011;374;52.568;13.402;2023-04-15T12:42:55;16.20;;;14.07;;
781;SDS011;374;52.568;13.402;2023-04-15T12:49:08;18.93;;;14.47;;
781;SDS011;374;52.568;13.402;2023-04-15T12:51:39;15.50;;;14.00;;
781;SDS011;374;52.568;13.402;2023-04-15T12:54:05;16.77;;;15.00;;
781;SDS011;374;52.568;13.402;2023-04-15T12:56:31;16.10;;;14.43;;
781;SDS011;374;52.568;13.402;2023-04-15T13:05:28;15.20;;;13.60;;
781;SDS011;374;52.568;13.402;2023-04-15T13:08:02;16.70;;;14.77;;
781;SDS011;374;52.568;13.402;2023-04-15T13:10:41;14.73;;;13.33;;
781;SDS011;374;52.568;13.402;2023-04-15T13:13:07;22.10;;;18.70;;
781;SDS011;374;52.568;13.402;2023-04-15T13:15:41;19.90;;;16.13;;
781;SDS011;374;52.568;13.402;2023-04-15T13:18:21;14.97;;;13.50;;
781;SDS011;374;52.568;13.402;2023-04-15T13:21:08;15.57;;;13.87;;
781;SDS011;374;52.568;13.402;2023-04-15T13:23:48;14.33;;;12.83;;
781;SDS011;374;52.568;13.402;2023-04-15T13:26:39;13.87;;;12.47;;
781;SDS011;374;52.568;13.402;2023-04-15T13:29:08;15.23;;;13.83;;
781;SDS011;374;52.568;13.402;2023-04-15T13:31:36;14.53;;;13.10;;
781;SDS011;374;52.568;13.402;2023-04-15T13:34:02;15.33;;;13.83;;
781;SDS011;374;52.568;13.402;2023-04-15T13:36:28;15.43;;;13.80;;
781;SDS011;374;52.568;13.402;2023-04-15T13:38:53;16.10;;;14.60;;
781;SDS011;374;52.568;13.402;2023-04-15T13:41:19;15.00;;;13.60;;
781;SDS011;374;52.568;13.402;2023-04-15T13:43:45;14.27;;;12.87;;
781;SDS011;374;52.568;13.402;2023-04-15T13:46:11;15.83;;;14.23;;
781;SDS011;374;52.568;13.402;2023-04-15T13:48:36;17.57;;;15.20;;
781;SDS011;374;52.568;13.402;2023-04-15T13:51:05;16.40;;;14.30;;
781;SDS011;374;52.568;13.402;2023-04-15T13:53:30;15.00;;;13.50;;
781;SDS011;374;52.568;13.402;2023-04-15T13:55:59;15.93;;;14.43;;
781;SDS011;374;52.568;13.402;2023-04-15T13:58:24;16.90;;;15.10;;
781;SDS011;374;52.568;13.402;2023-04-15T14:00:50;16.00;;;14.50;;
781;SDS011;374;52.568;13.402;2023-04-15T14:04:08;16.17;;;14.50;;
781;SDS011;374;52.568;13.402;2023-04-15T14:06:33;17.77;;;15.23;;
781;SDS011;374;52.568;13.402;2023-04-15T14:08:59;16.23;;;14.60;;
781;SDS011;374;52.568;13.402;2023-04-15T14:11:25;19.47;;;14.10;;
781;SDS011;374;52.568;13.402;2023-04-15T14:13:57;19.37;;;16.20;;
781;SDS011;374;52.568;13.402;2023-04-15T14:16:26;16.13;;;14.53;;
781;SDS011;374;52.568;13.402;2023-04-15T14:22:12;15.23;;;13.73;;
781;SDS011;374;52.568;13.402;2023-04-15T14:25:35;20.40;;;16.20;;
781;SDS011;374;52.568;13.402;2023-04-15T14:34:48;15.90;;;14.20;;
781;SDS011;374;52.568;13.402;2023-04-15T14:37:13;14.03;;;12.57;;
781;SDS011;374;52.568;13.402;2023-04-15T14:39:39;12.70;;;11.40;;
781;SDS011;374;52.568;13.402;2023-04-15T14:45:03;12.83;;;11.50;;
781;SDS011;374;52.568;13.402;2023-04-15T14:47:29;12.67;;;11.50;;
781;SDS011;374;52.568;13.402;2023-04-15T14:50:01;12.30;;;11.07;;
781;SDS011;374;52.568;13.402;2023-04-15T14:52:30;11.33;;;10.27;;
781;SDS011;374;52.568;13.402;2023-04-15T14:55:02;13.40;;;12.13;;
781;SDS011;374;52.568;13.402;2023-04-15T14:57:35;12.60;;;11.30;;
781;SDS011;374;52.568;13.402;2023-04-15T15:00:10;12.67;;;11.47;;
781;SDS011;374;52.568;13.402;2023-04-15T15:02:36;12.70;;;11.50;;
781;SDS011;374;52.568;13.402;2023-04-15T15:05:02;12.70;;;11.60;;
781;SDS011;374;52.568;13.402;2023-04-15T15:07:34;11.83;;;10.63;;
781;SDS011;374;52.568;13.402;2023-04-15T15:10:00;13.83;;;12.43;;
781;SDS011;374;52.568;13.402;2023-04-15T15:12:39;12.23;;;11.03;;
781;SDS011;374;52.568;13.402;2023-04-15T15:15:13;13.40;;;11.50;;
781;SDS011;374;52.568;13.402;2023-04-15T15:17:38;11.00;;;9.90;;
781;SDS011;374;52.568;13.402;2023-04-15T15:20:04;11.57;;;10.47;;
781;SDS011;374;52.568;13.402;2023-04-15T15:22:30;11.80;;;10.70;;
781;SDS011;374;52.568;13.402;2023-04-15T15:24:55;11.43;;;10.23;;
781;SDS011;374;52.568;13.402;2023-04-15T15:27:23;11.83;;;10.70;;
781;SDS011;374;52.568;13.402;2023-04-15T15:29:48;12.37;;;11.30;;
781;SDS011;374;52.568;13.402;2023-04-15T15:32:14;10.53;;;9.53;;
781;SDS011;374;52.568;13.402;2023-04-15T15:34:39;11.73;;;10.70;;
781;SDS011;374;52.568;13.402;2023-04-15T15:37:05;11.07;;;10.07;;
781;SDS011;374;52.568;13.402;2023-04-15T15:39:30;11.77;;;10.60;;
781;SDS011;374;52.568;13.402;2023-04-15T15:41:56;11.20;;;10.00;;
781;SDS011;374;52.568;13.402;2023-04-15T15:44:21;11.50;;;10.00;;
781;SDS011;374;52.568;13.402;2023-04-15T15:46:47;11.07;;;9.97;;
781;SDS011;374;52.568;13.402;2023-04-15T15:49:14;10.40;;;9.37;;
781;SDS011;374;52.568;13.402;2023-04-15T15:51:39;10.63;;;9.53;;
781;SDS011;374;52.568;13.402;2023-04-15T15:54:05;11.20;;;9.77;;
781;SDS011;374;52.568;13.402;2023-04-15T15:56:30;10.80;;;9.70;;
781;SDS011;374;52.568;13.402;2023-04-15T15:58:57;9.90;;;9.00;;
781;SDS011;374;52.568;13.402;2023-04-15T16:01:22;12.00;;;10.80;;